sensor_id;sensor_type;location;lat;lon;timestamp;temperature;humidity
31809;DHT22;18379;48.208;-1.518;2023-06-26T00:04:53;17.50;99.90
31809;DHT22;18379;48.208;-1.518;2023-06-26T00:09:54;17.40;99.90
31809;DHT22;18379;48.208;-1.518;2023-06-26T00:14:55;17.40;99.90
31809;DHT22;18379;48.208;-1.518;2023-06-26T00:19:56;17.30;99.90
31809;DHT22;18379;48.208;-1.518;2023-06-26T00:25:08;17.20;99.90
31809;DHT22;18379;48.208;-1.518;2023-06-26T00:30:36;17.20;99.90
31809;DHT22;18379;48.208;-1.518;2023-06-26T00:35:37;17.10;99.90
31809;DHT22;18379;48.208;-1.518;2023-06-26T00:40:37;17.10;99.90
31809;DHT22;18379;48.208;-1.518;2023-06-26T00:45:47;17.00;99.90
31809;DHT22;18379;48.208;-1.518;2023-06-26T00:57:13;16.90;99.90
31809;DHT22;18379;48.208;-1.518;2023-06-26T01:02:13;16.90;99.90
31809;DHT22;18379;48.208;-1.518;2023-06-26T01:07:18;16.90;99.90
31809;DHT22;18379;48.208;-1.518;2023-06-26T01:12:20;16.80;99.90
31809;DHT22;18379;48.208;-1.518;2023-06-26T01:17:21;16.80;99.90
31809;DHT22;18379;48.208;-1.518;2023-06-26T01:27:32;16.60;99.90
31809;DHT22;18379;48.208;-1.518;2023-06-26T01:32:33;16.60;99.90
31809;DHT22;18379;48.208;-1.518;2023-06-26T01:37:34;16.50;99.90
31809;DHT22;18379;48.208;-1.518;2023-06-26T01:42:35;16.30;99.90
31809;DHT22;18379;48.208;-1.518;2023-06-26T01:47:37;16.40;99.90
31809;DHT22;18379;48.208;-1.518;2023-06-26T01:57:56;16.20;99.90
31809;DHT22;18379;48.208;-1.518;2023-06-26T02:02:58;16.10;99.90
31809;DHT22;18379;48.208;-1.518;2023-06-26T02:07:59;16.10;99.90
31809;DHT22;18379;48.208;-1.518;2023-06-26T02:13:01;16.10;99.90
31809;DHT22;18379;48.208;-1.518;2023-06-26T02:18:03;16.10;99.90
31809;DHT22;18379;48.208;-1.518;2023-06-26T02:23:04;16.00;99.90
31809;DHT22;18379;48.208;-1.518;2023-06-26T02:28:04;15.90;99.90
31809;DHT22;18379;48.208;-1.518;2023-06-26T02:33:05;15.90;99.90
31809;DHT22;18379;48.208;-1.518;2023-06-26T02:38:06;15.80;99.90
31809;DHT22;18379;48.208;-1.518;2023-06-26T02:43:07;15.70;99.90
31809;DHT22;18379;48.208;-1.518;2023-06-26T02:48:08;15.80;99.90
31809;DHT22;18379;48.208;-1.518;2023-06-26T02:53:08;15.80;99.90
31809;DHT22;18379;48.208;-1.518;2023-06-26T02:58:09;15.80;99.90
31809;DHT22;18379;48.208;-1.518;2023-06-26T03:03:10;15.80;99.90
31809;DHT22;18379;48.208;-1.518;2023-06-26T03:08:11;15.70;99.90
31809;DHT22;18379;48.208;-1.518;2023-06-26T03:13:11;15.60;99.90
31809;DHT22;18379;48.208;-1.518;2023-06-26T03:18:12;15.50;99.90
31809;DHT22;18379;48.208;-1.518;2023-06-26T03:23:13;15.40;99.90
31809;DHT22;18379;48.208;-1.518;2023-06-26T03:28:14;15.40;99.90
31809;DHT22;18379;48.208;-1.518;2023-06-26T03:33:15;15.30;99.90
31809;DHT22;18379;48.208;-1.518;2023-06-26T03:38:15;15.30;99.90
31809;DHT22;18379;48.208;-1.518;2023-06-26T03:43:16;15.30;99.90
31809;DHT22;18379;48.208;-1.518;2023-06-26T03:48:17;15.30;99.90
31809;DHT22;18379;48.208;-1.518;2023-06-26T03:53:18;15.30;99.90
31809;DHT22;18379;48.208;-1.518;2023-06-26T03:58:19;15.30;99.90
31809;DHT22;18379;48.208;-1.518;2023-06-26T04:03:20;15.20;99.90
31809;DHT22;18379;48.208;-1.518;2023-06-26T04:08:23;15.20;99.90
31809;DHT22;18379;48.208;-1.518;2023-06-26T04:13:24;15.10;99.90
31809;DHT22;18379;48.208;-1.518;2023-06-26T04:18:28;15.10;99.90
31809;DHT22;18379;48.208;-1.518;2023-06-26T04:23:28;15.10;99.90
31809;DHT22;18379;48.208;-1.518;2023-06-26T04:28:29;15.10;99.90
31809;DHT22;18379;48.208;-1.518;2023-06-26T04:33:30;15.00;99.90
31809;DHT22;18379;48.208;-1.518;2023-06-26T04:38:32;15.00;99.90
31809;DHT22;18379;48.208;-1.518;2023-06-26T04:43:33;15.10;99.90
31809;DHT22;18379;48.208;-1.518;2023-06-26T04:48:34;15.00;99.90
31809;DHT22;18379;48.208;-1.518;2023-06-26T04:53:35;15.00;99.90
31809;DHT22;18379;48.208;-1.518;2023-06-26T04:58:36;14.90;99.90
31809;DHT22;18379;48.208;-1.518;2023-06-26T05:03:36;14.90;99.90
31809;DHT22;18379;48.208;-1.518;2023-06-26T05:08:37;14.90;99.90
31809;DHT22;18379;48.208;-1.518;2023-06-26T05:13:38;15.00;99.90
31809;DHT22;18379;48.208;-1.518;2023-06-26T05:18:39;15.00;99.90
31809;DHT22;18379;48.208;-1.518;2023-06-26T05:23:40;15.10;99.90
31809;DHT22;18379;48.208;-1.518;2023-06-26T05:28:41;15.10;99.90
31809;DHT22;18379;48.208;-1.518;2023-06-26T05:33:45;15.10;99.90
31809;DHT22;18379;48.208;-1.518;2023-06-26T05:38:47;15.30;99.90
31809;DHT22;18379;48.208;-1.518;2023-06-26T05:43:49;15.30;99.90
31809;DHT22;18379;48.208;-1.518;2023-06-26T05:48:50;15.40;99.90
31809;DHT22;18379;48.208;-1.518;2023-06-26T05:53:51;15.50;99.90
31809;DHT22;18379;48.208;-1.518;2023-06-26T05:58:52;15.70;99.90
31809;DHT22;18379;48.208;-1.518;2023-06-26T06:03:53;15.80;99.90
31809;DHT22;18379;48.208;-1.518;2023-06-26T06:08:54;15.80;99.90
31809;DHT22;18379;48.208;-1.518;2023-06-26T06:13:55;16.00;99.90
31809;DHT22;18379;48.208;-1.518;2023-06-26T06:18:55;16.20;99.90
31809;DHT22;18379;48.208;-1.518;2023-06-26T06:23:56;16.40;99.90
31809;DHT22;18379;48.208;-1.518;2023-06-26T06:28:57;16.60;99.90
31809;DHT22;18379;48.208;-1.518;2023-06-26T06:33:58;16.70;99.90
31809;DHT22;18379;48.208;-1.518;2023-06-26T06:38:58;16.90;99.90
31809;DHT22;18379;48.208;-1.518;2023-06-26T06:43:59;17.10;99.90
31809;DHT22;18379;48.208;-1.518;2023-06-26T06:49:00;17.10;99.90
31809;DHT22;18379;48.208;-1.518;2023-06-26T06:54:01;17.40;99.90
31809;DHT22;18379;48.208;-1.518;2023-06-26T06:59:02;17.50;99.90
31809;DHT22;18379;48.208;-1.518;2023-06-26T07:04:03;17.60;99.90
31809;DHT22;18379;48.208;-1.518;2023-06-26T07:09:04;17.80;99.90
31809;DHT22;18379;48.208;-1.518;2023-06-26T07:14:06;18.00;99.90
31809;DHT22;18379;48.208;-1.518;2023-06-26T07:19:07;18.10;99.90
31809;DHT22;18379;48.208;-1.518;2023-06-26T07:24:08;18.20;99.90
31809;DHT22;18379;48.208;-1.518;2023-06-26T07:29:08;18.10;99.90
31809;DHT22;18379;48.208;-1.518;2023-06-26T07:34:11;18.00;99.90
31809;DHT22;18379;48.208;-1.518;2023-06-26T07:39:12;17.90;99.90
31809;DHT22;18379;48.208;-1.518;2023-06-26T07:44:13;18.20;99.90
31809;DHT22;18379;48.208;-1.518;2023-06-26T07:49:14;18.40;99.90
31809;DHT22;18379;48.208;-1.518;2023-06-26T07:54:15;18.30;99.90
31809;DHT22;18379;48.208;-1.518;2023-06-26T07:59:16;18.50;99.90
31809;DHT22;18379;48.208;-1.518;2023-06-26T08:04:18;18.80;99.90
31809;DHT22;18379;48.208;-1.518;2023-06-26T08:09:22;18.80;99.90
31809;DHT22;18379;48.208;-1.518;2023-06-26T08:14:23;18.60;99.90
31809;DHT22;18379;48.208;-1.518;2023-06-26T08:19:24;18.90;99.90
31809;DHT22;18379;48.208;-1.518;2023-06-26T08:24:25;19.20;99.90
31809;DHT22;18379;48.208;-1.518;2023-06-26T08:29:25;19.20;99.90
31809;DHT22;18379;48.208;-1.518;2023-06-26T08:34:26;19.30;99.90
31809;DHT22;18379;48.208;-1.518;2023-06-26T08:39:27;19.80;99.90
31809;DHT22;18379;48.208;-1.518;2023-06-26T08:44:28;19.60;99.90
31809;DHT22;18379;48.208;-1.518;2023-06-26T08:55:00;19.80;99.90
31809;DHT22;18379;48.208;-1.518;2023-06-26T09:00:03;20.00;99.90
31809;DHT22;18379;48.208;-1.518;2023-06-26T09:05:05;19.80;99.90
31809;DHT22;18379;48.208;-1.518;2023-06-26T09:10:06;19.90;99.90
31809;DHT22;18379;48.208;-1.518;2023-06-26T09:15:07;20.50;99.90
31809;DHT22;18379;48.208;-1.518;2023-06-26T09:20:09;20.60;99.90
31809;DHT22;18379;48.208;-1.518;2023-06-26T09:25:11;20.60;99.90
31809;DHT22;18379;48.208;-1.518;2023-06-26T09:30:16;20.80;99.90
31809;DHT22;18379;48.208;-1.518;2023-06-26T09:35:17;20.80;99.90
31809;DHT22;18379;48.208;-1.518;2023-06-26T09:40:18;21.20;99.90
31809;DHT22;18379;48.208;-1.518;2023-06-26T09:45:19;21.80;99.90
31809;DHT22;18379;48.208;-1.518;2023-06-26T09:50:22;21.60;99.90
31809;DHT22;18379;48.208;-1.518;2023-06-26T09:55:24;21.30;99.90
31809;DHT22;18379;48.208;-1.518;2023-06-26T10:00:25;21.00;99.90
31809;DHT22;18379;48.208;-1.518;2023-06-26T10:13:01;21.40;99.90
31809;DHT22;18379;48.208;-1.518;2023-06-26T10:30:47;22.70;99.90
31809;DHT22;18379;48.208;-1.518;2023-06-26T10:35:48;22.20;99.90
31809;DHT22;18379;48.208;-1.518;2023-06-26T10:40:49;23.00;99.90
31809;DHT22;18379;48.208;-1.518;2023-06-26T10:45:54;23.70;99.90
31809;DHT22;18379;48.208;-1.518;2023-06-26T10:50:55;23.20;99.90
31809;DHT22;18379;48.208;-1.518;2023-06-26T10:55:57;22.20;99.90
31809;DHT22;18379;48.208;-1.518;2023-06-26T11:01:26;22.40;99.90
31809;DHT22;18379;48.208;-1.518;2023-06-26T11:06:27;22.90;99.90
31809;DHT22;18379;48.208;-1.518;2023-06-26T11:16:57;23.20;99.90
31809;DHT22;18379;48.208;-1.518;2023-06-26T11:22:18;23.80;99.90
31809;DHT22;18379;48.208;-1.518;2023-06-26T11:27:19;23.90;99.90
31809;DHT22;18379;48.208;-1.518;2023-06-26T11:32:20;23.80;99.90
31809;DHT22;18379;48.208;-1.518;2023-06-26T11:37:21;23.30;99.90
31809;DHT22;18379;48.208;-1.518;2023-06-26T11:42:24;24.20;99.90
31809;DHT22;18379;48.208;-1.518;2023-06-26T11:47:29;23.70;99.90
31809;DHT22;18379;48.208;-1.518;2023-06-26T11:52:32;23.60;99.90
31809;DHT22;18379;48.208;-1.518;2023-06-26T11:57:33;23.90;99.90
31809;DHT22;18379;48.208;-1.518;2023-06-26T12:02:35;24.20;99.90
31809;DHT22;18379;48.208;-1.518;2023-06-26T12:07:37;24.90;99.90
31809;DHT22;18379;48.208;-1.518;2023-06-26T12:12:38;24.10;99.90
31809;DHT22;18379;48.208;-1.518;2023-06-26T12:17:40;23.60;99.90
31809;DHT22;18379;48.208;-1.518;2023-06-26T12:22:41;23.30;99.90
31809;DHT22;18379;48.208;-1.518;2023-06-26T12:27:45;23.00;99.90
31809;DHT22;18379;48.208;-1.518;2023-06-26T12:32:46;23.80;99.90
31809;DHT22;18379;48.208;-1.518;2023-06-26T12:37:47;24.90;99.90
31809;DHT22;18379;48.208;-1.518;2023-06-26T12:42:48;25.40;99.90
31809;DHT22;18379;48.208;-1.518;2023-06-26T12:47:49;24.80;99.90
31809;DHT22;18379;48.208;-1.518;2023-06-26T12:52:50;25.60;99.90
31809;DHT22;18379;48.208;-1.518;2023-06-26T12:57:51;26.10;98.80
31809;DHT22;18379;48.208;-1.518;2023-06-26T13:02:52;24.80;98.40
31809;DHT22;18379;48.208;-1.518;2023-06-26T13:07:53;25.10;98.60
31809;DHT22;18379;48.208;-1.518;2023-06-26T13:12:54;25.80;99.10
31809;DHT22;18379;48.208;-1.518;2023-06-26T13:17:54;26.50;99.10
31809;DHT22;18379;48.208;-1.518;2023-06-26T13:22:56;26.50;97.50
31809;DHT22;18379;48.208;-1.518;2023-06-26T13:27:56;26.10;94.90
31809;DHT22;18379;48.208;-1.518;2023-06-26T13:32:57;26.60;95.30
31809;DHT22;18379;48.208;-1.518;2023-06-26T13:37:58;25.70;94.80
31809;DHT22;18379;48.208;-1.518;2023-06-26T13:42:59;24.70;96.60
31809;DHT22;18379;48.208;-1.518;2023-06-26T13:48:00;23.90;97.70
31809;DHT22;18379;48.208;-1.518;2023-06-26T13:53:01;24.10;97.90
31809;DHT22;18379;48.208;-1.518;2023-06-26T13:58:05;24.40;98.60
31809;DHT22;18379;48.208;-1.518;2023-06-26T14:03:07;25.50;97.60
31809;DHT22;18379;48.208;-1.518;2023-06-26T14:08:08;25.30;97.20
31809;DHT22;18379;48.208;-1.518;2023-06-26T14:13:09;25.50;97.50
31809;DHT22;18379;48.208;-1.518;2023-06-26T14:18:12;25.70;96.30
31809;DHT22;18379;48.208;-1.518;2023-06-26T14:23:13;25.10;97.00
31809;DHT22;18379;48.208;-1.518;2023-06-26T14:28:15;26.00;96.80
31809;DHT22;18379;48.208;-1.518;2023-06-26T14:33:16;26.50;97.70
31809;DHT22;18379;48.208;-1.518;2023-06-26T14:38:16;25.10;95.70
31809;DHT22;18379;48.208;-1.518;2023-06-26T14:43:17;24.70;96.30
31809;DHT22;18379;48.208;-1.518;2023-06-26T14:48:18;24.90;96.50
31809;DHT22;18379;48.208;-1.518;2023-06-26T14:53:20;24.70;96.80
31809;DHT22;18379;48.208;-1.518;2023-06-26T15:04:00;24.90;96.80
31809;DHT22;18379;48.208;-1.518;2023-06-26T15:09:01;25.50;96.80
31809;DHT22;18379;48.208;-1.518;2023-06-26T15:14:03;24.70;97.40
31809;DHT22;18379;48.208;-1.518;2023-06-26T15:19:03;23.80;98.90
31809;DHT22;18379;48.208;-1.518;2023-06-26T15:24:04;23.50;99.60
31809;DHT22;18379;48.208;-1.518;2023-06-26T15:29:11;24.80;98.60
31809;DHT22;18379;48.208;-1.518;2023-06-26T15:34:15;24.60;97.60
31809;DHT22;18379;48.208;-1.518;2023-06-26T15:39:16;25.70;96.70
31809;DHT22;18379;48.208;-1.518;2023-06-26T15:44:20;25.10;96.90
31809;DHT22;18379;48.208;-1.518;2023-06-26T15:49:21;25.50;96.70
31809;DHT22;18379;48.208;-1.518;2023-06-26T15:54:22;25.50;96.70
31809;DHT22;18379;48.208;-1.518;2023-06-26T15:59:23;25.00;96.40
31809;DHT22;18379;48.208;-1.518;2023-06-26T16:04:23;25.20;97.00
31809;DHT22;18379;48.208;-1.518;2023-06-26T16:09:24;24.20;97.60
31809;DHT22;18379;48.208;-1.518;2023-06-26T16:14:25;24.10;97.80
31809;DHT22;18379;48.208;-1.518;2023-06-26T16:19:26;23.90;98.20
31809;DHT22;18379;48.208;-1.518;2023-06-26T16:24:27;24.10;98.20
31809;DHT22;18379;48.208;-1.518;2023-06-26T16:29:28;23.40;98.00
31809;DHT22;18379;48.208;-1.518;2023-06-26T16:34:28;23.20;99.40
31809;DHT22;18379;48.208;-1.518;2023-06-26T16:39:29;23.80;98.00
31809;DHT22;18379;48.208;-1.518;2023-06-26T16:44:30;23.60;97.70
31809;DHT22;18379;48.208;-1.518;2023-06-26T16:49:31;23.10;98.40
31809;DHT22;18379;48.208;-1.518;2023-06-26T16:54:32;23.00;97.60
31809;DHT22;18379;48.208;-1.518;2023-06-26T16:59:32;22.50;98.00
31809;DHT22;18379;48.208;-1.518;2023-06-26T17:04:33;22.50;98.80
31809;DHT22;18379;48.208;-1.518;2023-06-26T17:09:34;22.20;99.00
31809;DHT22;18379;48.208;-1.518;2023-06-26T17:14:35;22.20;99.90
31809;DHT22;18379;48.208;-1.518;2023-06-26T17:19:36;22.30;99.70
31809;DHT22;18379;48.208;-1.518;2023-06-26T17:24:37;22.20;99.90
31809;DHT22;18379;48.208;-1.518;2023-06-26T17:30:32;22.20;99.90
31809;DHT22;18379;48.208;-1.518;2023-06-26T17:35:33;22.20;99.90
31809;DHT22;18379;48.208;-1.518;2023-06-26T17:40:35;21.50;99.90
31809;DHT22;18379;48.208;-1.518;2023-06-26T17:45:36;21.50;99.90
31809;DHT22;18379;48.208;-1.518;2023-06-26T17:50:38;21.70;99.90
31809;DHT22;18379;48.208;-1.518;2023-06-26T17:55:38;21.70;99.90
31809;DHT22;18379;48.208;-1.518;2023-06-26T18:00:39;21.20;99.90
31809;DHT22;18379;48.208;-1.518;2023-06-26T18:05:40;21.10;99.90
31809;DHT22;18379;48.208;-1.518;2023-06-26T18:10:42;20.80;99.90
31809;DHT22;18379;48.208;-1.518;2023-06-26T18:15:43;20.70;99.90
31809;DHT22;18379;48.208;-1.518;2023-06-26T18:20:43;20.50;99.90
31809;DHT22;18379;48.208;-1.518;2023-06-26T18:25:44;20.50;99.90
31809;DHT22;18379;48.208;-1.518;2023-06-26T18:30:45;20.30;99.90
31809;DHT22;18379;48.208;-1.518;2023-06-26T18:35:46;20.20;99.90
31809;DHT22;18379;48.208;-1.518;2023-06-26T18:40:47;20.00;99.90
31809;DHT22;18379;48.208;-1.518;2023-06-26T18:45:48;19.90;99.90
31809;DHT22;18379;48.208;-1.518;2023-06-26T18:50:49;19.70;99.90
31809;DHT22;18379;48.208;-1.518;2023-06-26T18:55:50;19.80;99.90
31809;DHT22;18379;48.208;-1.518;2023-06-26T19:00:51;19.70;99.90
31809;DHT22;18379;48.208;-1.518;2023-06-26T19:05:51;19.70;99.90
31809;DHT22;18379;48.208;-1.518;2023-06-26T19:10:52;19.70;99.90
31809;DHT22;18379;48.208;-1.518;2023-06-26T19:15:53;19.50;99.90
31809;DHT22;18379;48.208;-1.518;2023-06-26T19:20:54;19.50;99.90
31809;DHT22;18379;48.208;-1.518;2023-06-26T19:25:55;19.40;99.90
31809;DHT22;18379;48.208;-1.518;2023-06-26T19:30:56;19.10;99.90
31809;DHT22;18379;48.208;-1.518;2023-06-26T19:35:57;19.00;99.90
31809;DHT22;18379;48.208;-1.518;2023-06-26T19:40:58;18.80;99.90
31809;DHT22;18379;48.208;-1.518;2023-06-26T19:45:59;18.70;99.90
31809;DHT22;18379;48.208;-1.518;2023-06-26T19:51:03;18.60;99.90
31809;DHT22;18379;48.208;-1.518;2023-06-26T19:56:04;18.50;99.90
31809;DHT22;18379;48.208;-1.518;2023-06-26T20:01:06;18.30;99.90
31809;DHT22;18379;48.208;-1.518;2023-06-26T20:06:06;18.20;99.90
31809;DHT22;18379;48.208;-1.518;2023-06-26T20:11:07;18.10;99.90
31809;DHT22;18379;48.208;-1.518;2023-06-26T20:16:08;18.00;99.90
31809;DHT22;18379;48.208;-1.518;2023-06-26T20:21:09;18.00;99.90
31809;DHT22;18379;48.208;-1.518;2023-06-26T20:26:11;17.90;99.90
31809;DHT22;18379;48.208;-1.518;2023-06-26T20:31:12;17.90;99.90
31809;DHT22;18379;48.208;-1.518;2023-06-26T20:36:12;18.00;99.90
31809;DHT22;18379;48.208;-1.518;2023-06-26T20:41:13;17.90;99.90
31809;DHT22;18379;48.208;-1.518;2023-06-26T20:46:15;17.70;99.90
31809;DHT22;18379;48.208;-1.518;2023-06-26T20:51:18;17.70;99.90
31809;DHT22;18379;48.208;-1.518;2023-06-26T21:02:29;17.70;99.90
31809;DHT22;18379;48.208;-1.518;2023-06-26T21:07:30;17.60;99.90
31809;DHT22;18379;48.208;-1.518;2023-06-26T21:12:31;17.50;99.90
31809;DHT22;18379;48.208;-1.518;2023-06-26T21:17:32;17.50;99.90
31809;DHT22;18379;48.208;-1.518;2023-06-26T21:22:33;17.40;99.90
31809;DHT22;18379;48.208;-1.518;2023-06-26T21:27:34;17.40;99.90
31809;DHT22;18379;48.208;-1.518;2023-06-26T21:32:35;17.40;99.90
31809;DHT22;18379;48.208;-1.518;2023-06-26T21:37:36;17.50;99.90
31809;DHT22;18379;48.208;-1.518;2023-06-26T21:42:37;17.40;99.90
31809;DHT22;18379;48.208;-1.518;2023-06-26T21:47:37;17.40;99.90
31809;DHT22;18379;48.208;-1.518;2023-06-26T21:52:38;17.20;99.90
31809;DHT22;18379;48.208;-1.518;2023-06-26T21:57:39;17.20;99.90
31809;DHT22;18379;48.208;-1.518;2023-06-26T22:02:40;17.10;99.90
31809;DHT22;18379;48.208;-1.518;2023-06-26T22:07:41;17.00;99.90
31809;DHT22;18379;48.208;-1.518;2023-06-26T22:12:42;16.90;99.90
31809;DHT22;18379;48.208;-1.518;2023-06-26T22:17:54;16.70;99.90
31809;DHT22;18379;48.208;-1.518;2023-06-26T22:22:55;16.60;99.90
31809;DHT22;18379;48.208;-1.518;2023-06-26T22:27:56;16.50;99.90
31809;DHT22;18379;48.208;-1.518;2023-06-26T22:32:57;16.50;99.90
31809;DHT22;18379;48.208;-1.518;2023-06-26T22:37:58;16.50;99.90
31809;DHT22;18379;48.208;-1.518;2023-06-26T22:42:58;16.50;99.90
31809;DHT22;18379;48.208;-1.518;2023-06-26T22:47:59;16.40;99.90
31809;DHT22;18379;48.208;-1.518;2023-06-26T22:53:00;16.40;99.90
31809;DHT22;18379;48.208;-1.518;2023-06-26T22:58:01;16.40;99.90
31809;DHT22;18379;48.208;-1.518;2023-06-26T23:08:27;16.50;99.90
31809;DHT22;18379;48.208;-1.518;2023-06-26T23:13:28;16.60;99.90
31809;DHT22;18379;48.208;-1.518;2023-06-26T23:18:28;16.50;99.90
31809;DHT22;18379;48.208;-1.518;2023-06-26T23:23:29;16.50;99.90
31809;DHT22;18379;48.208;-1.518;2023-06-26T23:28:30;16.40;99.90
31809;DHT22;18379;48.208;-1.518;2023-06-26T23:33:33;16.60;99.90
31809;DHT22;18379;48.208;-1.518;2023-06-26T23:38:41;16.50;99.90
31809;DHT22;18379;48.208;-1.518;2023-06-26T23:43:43;16.40;99.90
31809;DHT22;18379;48.208;-1.518;2023-06-26T23:48:44;16.40;99.90
31809;DHT22;18379;48.208;-1.518;2023-06-26T23:53:45;16.40;99.90
31809;DHT22;18379;48.208;-1.518;2023-06-26T23:58:45;16.30;99.90
